Time;durP1;ratioP1;P1;durP2;ratioP2;P2;SDS_P1;SDS_P2;PMS_P1;PMS_P2;Temp;Humidity;BMP_temperature;BMP_pressure;BME280_temperature;BME280_humidity;BME280_pressure;Samples;Min_cycle;Max_cycle;Signal;HPM_P1;HPM_P2
2023/02/14 00:00:48;;;;;;;28.27;14.77;;;;;;;1.18;98.00;102912.13;4997683;28;20216;-78
2023/02/14 00:03:15;;;;;;;26.97;16.03;;;;;;;1.17;98.23;102902.47;5002560;28;20598;-78
2023/02/14 00:05:41;;;;;;;26.43;14.87;;;;;;;1.17;98.19;102910.34;5000589;28;20216;-78
2023/02/14 00:08:08;;;;;;;31.93;16.13;;;;;;;1.18;98.74;102900.75;4994260;28;20209;-78
2023/02/14 00:10:34;;;;;;;25.70;14.47;;;;;;;1.16;98.65;102899.84;4998785;28;20228;-79
2023/02/14 00:13:02;;;;;;;28.13;14.60;;;;;;;1.15;98.79;102900.69;4999857;28;20235;-78
2023/02/14 00:15:28;;;;;;;24.00;14.67;;;;;;;1.15;99.26;102900.69;5001472;28;20203;-79
2023/02/14 00:17:58;;;;;;;28.97;14.40;;;;;;;1.14;99.36;102898.94;5003359;28;20214;-78
2023/02/14 00:20:26;;;;;;;27.30;15.07;;;;;;;1.14;99.39;102898.94;5008491;28;20286;-79
2023/02/14 00:22:52;;;;;;;27.73;14.97;;;;;;;1.15;99.37;102901.56;4998488;28;20231;-78
2023/02/14 00:25:19;;;;;;;28.63;14.70;;;;;;;1.15;99.30;102904.19;5005149;28;20204;-78
2023/02/14 00:27:45;;;;;;;27.47;14.47;;;;;;;1.12;99.63;102896.28;5005511;28;20204;-78
2023/02/14 00:30:13;;;;;;;26.93;15.20;;;;;;;1.09;99.76;102893.63;5007928;28;20262;-79
2023/02/14 00:32:41;;;;;;;27.23;14.47;;;;;;;1.09;100.00;102901.50;4999241;28;20696;-78
2023/02/14 00:35:08;;;;;;;30.07;14.73;;;;;;;1.09;100.00;102898.88;5005857;28;20295;-78
2023/02/14 00:37:35;;;;;;;28.13;14.50;;;;;;;1.08;100.00;102897.13;5000208;28;20226;-79
2023/02/14 00:40:01;;;;;;;26.93;14.10;;;;;;;1.07;100.00;102887.50;4996716;28;20573;-79
2023/02/14 00:42:28;;;;;;;27.97;14.37;;;;;;;1.07;100.00;102894.50;4997426;28;20708;-79
2023/02/14 00:44:54;;;;;;;27.40;14.33;;;;;;;1.07;100.00;102892.75;4999842;28;20222;-79
2023/02/14 00:47:22;;;;;;;27.10;14.03;;;;;;;1.06;100.00;102908.47;5006712;28;20317;-78
2023/02/14 00:49:49;;;;;;;27.63;13.93;;;;;;;1.02;100.00;102910.19;4998816;28;20661;-78
2023/02/14 00:52:15;;;;;;;25.40;13.20;;;;;;;0.98;100.00;102904.00;4997760;28;20656;-78
2023/02/14 00:54:42;;;;;;;26.00;13.47;;;;;;;0.96;100.00;102912.72;5001970;28;20210;-78
2023/02/14 00:57:08;;;;;;;24.90;14.03;;;;;;;0.93;100.00;102910.06;5002296;28;20211;-79
2023/02/14 00:59:35;;;;;;;33.30;13.90;;;;;;;0.90;100.00;102904.75;5005932;28;20691;-78
2023/02/14 01:02:01;;;;;;;27.20;12.43;;;;;;;0.86;100.00;102908.22;5003726;28;20219;-78
2023/02/14 01:04:29;;;;;;;23.70;12.93;;;;;;;0.83;100.00;102908.19;4990011;28;20223;-78
2023/02/14 01:06:55;;;;;;;24.63;12.80;;;;;;;0.81;100.00;102909.91;4997243;28;20204;-79
2023/02/14 01:09:22;;;;;;;27.73;14.00;;;;;;;0.80;100.00;102908.16;5004550;28;20236;-79
2023/02/14 01:11:48;;;;;;;22.97;13.20;;;;;;;0.76;100.00;102901.97;4998444;28;20211;-79
2023/02/14 01:14:15;;;;;;;30.50;12.50;;;;;;;0.76;100.00;102903.72;5002702;28;20231;-78
2023/02/14 01:16:41;;;;;;;33.00;13.77;;;;;;;0.73;100.00;102903.66;4998848;28;20294;-79
2023/02/14 01:19:08;;;;;;;26.00;12.53;;;;;;;0.68;100.00;102904.50;5000131;28;20837;-79
2023/02/14 01:21:36;;;;;;;27.33;12.33;;;;;;;0.65;100.00;102903.59;4994072;28;20204;-79
2023/02/14 01:24:06;;;;;;;30.23;13.63;;;;;;;0.63;100.00;102897.44;5002328;28;20234;-78
2023/02/14 01:26:33;;;;;;;35.67;13.53;;;;;;;0.61;100.00;102892.16;5005948;28;20683;-79
2023/02/14 01:28:59;;;;;;;37.33;13.63;;;;;;;0.61;100.00;102901.78;4998722;28;20299;-78
2023/02/14 01:31:28;;;;;;;41.93;13.83;;;;;;;0.59;100.00;102898.25;4989099;28;20231;-79
2023/02/14 01:33:55;;;;;;;30.13;13.33;;;;;;;0.57;100.00;102906.09;4997534;28;20263;-78
2023/02/14 01:36:23;;;;;;;30.33;14.23;;;;;;;0.56;100.00;102892.97;5001900;28;20215;-78
2023/02/14 01:38:54;;;;;;;24.83;13.40;;;;;;;0.55;100.00;102904.31;4998015;28;20216;-79
2023/02/14 01:41:21;;;;;;;22.53;12.90;;;;;;;0.55;100.00;102907.81;5000141;28;20208;-79
2023/02/14 01:43:59;;;;;;;23.63;13.23;;;;;;;0.55;100.00;102906.94;5005946;28;20232;-79
2023/02/14 01:46:27;;;;;;;28.17;13.43;;;;;;;0.55;100.00;102899.06;4995421;28;20278;-78
2023/02/14 01:48:58;;;;;;;25.60;12.77;;;;;;;0.55;100.00;102907.81;5005212;28;20208;-79
2023/02/14 01:51:25;;;;;;;26.27;13.60;;;;;;;0.53;100.00;102901.69;5008033;28;20233;-79
2023/02/14 01:53:54;;;;;;;26.70;13.73;;;;;;;0.53;100.00;102900.81;5006401;28;20281;-78
2023/02/14 01:56:26;;;;;;;32.40;13.77;;;;;;;0.51;100.00;102900.78;5005506;28;20660;-79
2023/02/14 01:58:57;;;;;;;23.87;13.57;;;;;;;0.51;100.00;102897.28;4997421;28;20203;-79
2023/02/14 02:01:24;;;;;;;33.53;13.00;;;;;;;0.52;100.00;102899.03;5006347;28;20208;-79
2023/02/14 02:03:54;;;;;;;36.67;15.77;;;;;;;0.50;100.00;102892.91;4994389;28;20743;-79
2023/02/14 02:06:23;;;;;;;26.07;13.73;;;;;;;0.49;100.00;102902.50;5001020;28;20220;-79
2023/02/14 02:08:59;;;;;;;36.97;14.03;;;;;;;0.49;100.00;102892.00;4999224;28;20203;-78
2023/02/14 02:11:26;;;;;;;27.93;12.83;;;;;;;0.47;100.00;102898.09;5001809;28;20226;-79
2023/02/14 02:13:52;;;;;;;22.90;13.63;;;;;;;0.45;100.00;102884.97;5002786;28;20228;-79
2023/02/14 02:16:31;;;;;;;25.17;13.60;;;;;;;0.45;100.00;102884.06;5007281;28;20211;-79
2023/02/14 02:19:15;;;;;;;27.07;13.27;;;;;;;0.44;100.00;102882.31;5007440;28;20630;-79
2023/02/14 02:22:01;;;;;;;29.10;13.37;;;;;;;0.43;100.00;102877.94;4998739;28;20200;-78
2023/02/14 02:24:41;;;;;;;25.47;12.40;;;;;;;0.41;100.00;102880.53;5001266;28;20237;-79
2023/02/14 02:27:24;;;;;;;49.80;13.83;;;;;;;0.36;100.00;102879.56;5009850;28;20206;-79
2023/02/14 02:30:26;;;;;;;50.83;13.60;;;;;;;0.34;100.00;102870.84;4995738;28;20231;-79
2023/02/14 02:33:38;;;;;;;20.33;12.23;;;;;;;0.29;100.00;102859.41;4975519;28;20238;-79
2023/02/14 02:36:23;;;;;;;24.17;13.50;;;;;;;0.29;100.00;102857.66;4997813;28;20230;-79
2023/02/14 02:39:05;;;;;;;21.50;12.77;;;;;;;0.30;100.00;102861.16;4992027;28;20199;-79
2023/02/14 02:41:45;;;;;;;19.27;12.07;;;;;;;0.30;100.00;102850.69;4990535;28;20199;-79
2023/02/14 02:44:17;;;;;;;20.83;12.23;;;;;;;0.27;100.00;102848.00;4998292;28;20227;-78
2023/02/14 02:46:56;;;;;;;19.50;12.07;;;;;;;0.26;100.00;102851.47;4993882;28;20215;-78
2023/02/14 02:55:20;;;;;;;20.03;12.10;;;;;;;0.20;100.00;102848.75;5002494;28;20218;-79
2023/02/14 02:57:49;;;;;;;17.53;10.97;;;;;;;0.19;100.00;102849.63;5001853;28;20204;-78
2023/02/14 03:00:17;;;;;;;20.77;11.13;;;;;;;0.18;100.00;102851.34;4999920;28;20612;-79
2023/02/14 03:05:34;;;;;;;16.17;11.07;;;;;;;0.17;100.00;102846.13;4989036;28;20222;-78
2023/02/14 03:08:02;;;;;;;20.43;11.40;;;;;;;0.16;100.00;102846.97;4993953;28;20223;-79
2023/02/14 03:10:33;;;;;;;17.40;11.20;;;;;;;0.12;100.00;102839.94;4996103;28;20230;-78
2023/02/14 03:13:30;;;;;;;19.47;11.50;;;;;;;0.07;100.00;102845.09;4997932;28;20712;-78
2023/02/14 03:16:27;;;;;;;16.87;11.13;;;;;;;-0.01;100.00;102845.00;4993788;28;21407;-79
2023/02/14 03:21:59;;;;;;;16.93;11.07;;;;;;;-0.11;100.00;102850.06;5003275;28;20596;-79
2023/02/14 03:24:30;;;;;;;17.53;10.70;;;;;;;-0.17;100.00;102840.34;4994387;28;20230;-78
2023/02/14 03:27:04;;;;;;;17.50;11.07;;;;;;;-0.19;100.00;102834.25;4999230;28;20218;-79
2023/02/14 03:29:42;;;;;;;19.53;11.33;;;;;;;-0.20;100.00;102842.06;4990524;28;20210;-79
2023/02/14 03:32:14;;;;;;;18.13;10.70;;;;;;;-0.23;100.00;102840.28;4996617;28;20459;-78
2023/02/14 03:34:48;;;;;;;17.13;10.90;;;;;;;-0.27;100.00;102830.59;5002859;28;20224;-78
2023/02/14 03:37:19;;;;;;;16.60;10.13;;;;;;;-0.31;100.00;102828.78;4996699;28;20207;-79
2023/02/14 03:39:56;;;;;;;17.37;10.00;;;;;;;-0.37;100.00;102826.97;5002554;28;20207;-79
2023/02/14 03:42:27;;;;;;;16.57;9.87;;;;;;;-0.42;100.00;102819.88;5003761;28;20214;-78
2023/02/14 03:44:55;;;;;;;16.40;10.50;;;;;;;-0.46;100.00;102820.69;4991039;28;20210;-78
2023/02/14 03:47:25;;;;;;;16.40;11.20;;;;;;;-0.48;100.00;102815.41;4993335;28;20203;-78
2023/02/14 03:49:55;;;;;;;16.60;10.90;;;;;;;-0.49;100.00;102810.16;5007791;28;20718;-79
2023/02/14 03:52:24;;;;;;;16.87;10.13;;;;;;;-0.49;100.00;102811.03;4994334;28;20821;-79
2023/02/14 03:54:56;;;;;;;18.37;11.13;;;;;;;-0.51;100.00;102817.97;5003451;28;20210;-78
2023/02/14 03:57:27;;;;;;;17.93;10.17;;;;;;;-0.53;100.00;102814.47;4990653;28;20667;-79
2023/02/14 03:59:54;;;;;;;18.63;10.90;;;;;;;-0.56;100.00;102811.81;4999556;28;20208;-78
2023/02/14 04:02:27;;;;;;;17.90;11.53;;;;;;;-0.57;100.00;102798.69;5001463;28;20257;-79
2023/02/14 04:04:56;;;;;;;15.77;9.80;;;;;;;-0.59;100.00;102803.03;4994623;28;20558;-79
2023/02/14 04:07:24;;;;;;;13.30;9.17;;;;;;;-0.60;100.00;102798.66;4995043;28;20211;-78
2023/02/14 04:09:52;;;;;;;14.03;9.33;;;;;;;-0.62;100.00;102803.84;5001532;28;20203;-78
2023/02/14 04:12:19;;;;;;;13.17;8.30;;;;;;;-0.65;100.00;102805.53;4998762;28;20201;-78
2023/02/14 04:14:46;;;;;;;11.70;7.97;;;;;;;-0.67;100.00;102805.50;4995325;28;20214;-79
2023/02/14 04:19:56;;;;;;;10.87;7.40;;;;;;;-0.70;100.00;102801.09;4992549;28;20219;-79
2023/02/14 04:22:23;;;;;;;13.87;8.30;;;;;;;-0.73;100.00;102795.84;5003939;28;20210;-79
2023/02/14 04:24:49;;;;;;;11.03;8.13;;;;;;;-0.75;100.00;102794.03;4997161;28;20204;-79
2023/02/14 04:27:17;;;;;;;12.43;8.23;;;;;;;-0.77;100.00;102803.59;4994212;28;20230;-79
2023/02/14 04:29:47;;;;;;;14.53;8.13;;;;;;;-0.80;100.00;102795.69;4997780;28;20212;-79
2023/02/14 04:32:15;;;;;;;16.63;9.17;;;;;;;-0.83;100.00;102801.75;5000980;28;20234;-79
2023/02/14 04:34:42;;;;;;;12.57;8.37;;;;;;;-0.83;100.00;102800.84;5006723;28;20784;-79
2023/02/14 04:37:09;;;;;;;17.50;9.03;;;;;;;-0.83;100.00;102804.34;4998672;28;20222;-79
2023/02/14 04:39:36;;;;;;;10.73;7.67;;;;;;;-0.85;100.00;102803.44;5002124;28;20218;-78
2023/02/14 04:42:02;;;;;;;14.40;8.67;;;;;;;-0.86;100.00;102803.41;5001571;28;20207;-79
2023/02/14 04:44:32;;;;;;;12.20;8.03;;;;;;;-0.89;100.00;102804.22;4998981;28;20222;-78
2023/02/14 04:46:59;;;;;;;11.80;7.67;;;;;;;-0.92;100.00;102803.31;4992832;28;20239;-78
2023/02/14 04:49:25;;;;;;;12.17;8.17;;;;;;;-0.95;100.00;102801.53;5002934;28;20208;-78
2023/02/14 04:51:52;;;;;;;9.77;7.33;;;;;;;-0.98;100.00;102797.97;5000325;28;20227;-78
2023/02/14 04:54:18;;;;;;;14.63;8.17;;;;;;;-1.01;100.00;102804.03;5000315;28;20227;-78
2023/02/14 04:56:45;;;;;;;12.63;8.30;;;;;;;-1.04;100.00;102801.34;5005815;28;20214;-78
2023/02/14 04:59:11;;;;;;;16.03;8.73;;;;;;;-1.06;100.00;102805.66;5001361;28;20204;-78
2023/02/14 05:01:39;;;;;;;17.50;8.73;;;;;;;-1.10;100.00;102801.25;4988846;28;20214;-78
2023/02/14 05:04:06;;;;;;;17.47;8.77;;;;;;;-1.16;100.00;102790.66;4998807;28;20640;-79
2023/02/14 05:06:32;;;;;;;15.80;8.97;;;;;;;-1.18;100.00;102806.31;5000532;28;20207;-79
2023/02/14 05:08:59;;;;;;;11.50;8.30;;;;;;;-1.19;100.00;102806.28;4994790;28;20291;-79
2023/02/14 05:11:26;;;;;;;13.47;8.63;;;;;;;-1.20;100.00;102794.94;5003055;28;20226;-78
2023/02/14 05:13:53;;;;;;;14.43;9.33;;;;;;;-1.20;100.00;102792.34;4998394;28;20254;-79
2023/02/14 05:16:19;;;;;;;12.73;8.70;;;;;;;-1.19;100.00;102788.88;4999330;28;20662;-78
2023/02/14 05:18:47;;;;;;;12.43;9.10;;;;;;;-1.17;100.00;102794.13;5000795;28;20208;-78
2023/02/14 05:21:14;;;;;;;13.50;8.87;;;;;;;-1.18;100.00;102788.00;4992237;28;20223;-79
2023/02/14 05:23:40;;;;;;;13.53;8.27;;;;;;;-1.16;100.00;102793.28;4991171;28;20227;-78
2023/02/14 05:26:07;;;;;;;13.50;8.60;;;;;;;-1.16;100.00;102783.69;4990064;28;20208;-79
2023/02/14 05:28:35;;;;;;;11.00;7.73;;;;;;;-1.14;100.00;102788.97;5003736;28;20207;-78
2023/02/14 05:31:01;;;;;;;16.50;9.73;;;;;;;-1.15;100.00;102784.59;4997176;28;20243;-79
2023/02/14 05:33:28;;;;;;;15.93;8.93;;;;;;;-1.13;100.00;102785.50;4999211;28;20232;-79
2023/02/14 05:35:58;;;;;;;15.67;9.43;;;;;;;-1.13;100.00;102782.88;4990960;28;20208;-78
2023/02/14 05:38:25;;;;;;;15.00;8.70;;;;;;;-1.13;100.00;102783.75;4997312;28;20203;-79
2023/02/14 05:40:51;;;;;;;11.90;8.43;;;;;;;-1.13;100.00;102781.16;4993443;28;20203;-78
2023/02/14 05:43:18;;;;;;;14.20;9.17;;;;;;;-1.13;100.00;102783.75;4992715;28;20224;-78
2023/02/14 05:45:44;;;;;;;15.23;9.17;;;;;;;-1.14;100.00;102789.84;4995738;28;20215;-79
2023/02/14 05:48:11;;;;;;;12.30;7.93;;;;;;;-1.15;100.00;102793.31;4992479;28;20200;-79
2023/02/14 05:50:37;;;;;;;13.40;8.83;;;;;;;-1.18;100.00;102779.28;4987223;28;20211;-78
2023/02/14 05:53:05;;;;;;;12.07;8.00;;;;;;;-1.20;100.00;102787.09;4995350;28;20233;-79
2023/02/14 05:55:32;;;;;;;11.67;8.30;;;;;;;-1.22;100.00;102786.19;4993779;28;20214;-78
2023/02/14 05:57:58;;;;;;;14.50;8.27;;;;;;;-1.23;100.00;102791.38;5000667;28;20805;-79
2023/02/14 06:00:25;;;;;;;13.63;9.60;;;;;;;-1.24;100.00;102789.63;4994472;28;20223;-79
2023/02/14 06:02:51;;;;;;;13.33;8.80;;;;;;;-1.24;100.00;102790.50;4993752;28;20722;-79
2023/02/14 06:05:19;;;;;;;12.17;8.03;;;;;;;-1.24;100.00;102784.41;5005744;28;21311;-79
2023/02/14 06:07:49;;;;;;;13.10;8.00;;;;;;;-1.26;100.00;102800.06;4991368;28;20664;-78
2023/02/14 06:10:17;;;;;;;13.70;8.00;;;;;;;-1.26;100.00;102804.44;4988264;28;20199;-77
2023/02/14 06:12:44;;;;;;;12.90;8.40;;;;;;;-1.28;100.00;102795.66;4995658;28;20288;-77
2023/02/14 06:15:11;;;;;;;11.57;7.83;;;;;;;-1.31;100.00;102793.88;4988182;28;20212;-78
2023/02/14 06:17:38;;;;;;;12.47;8.90;;;;;;;-1.34;100.00;102793.81;4993336;28;20687;-78
2023/02/14 06:20:05;;;;;;;12.23;8.97;;;;;;;-1.37;100.00;102798.97;4988856;28;20211;-78
2023/02/14 06:22:32;;;;;;;11.00;8.20;;;;;;;-1.40;100.00;102793.66;4992135;28;20306;-78
2023/02/14 06:24:58;;;;;;;13.47;9.03;;;;;;;-1.41;100.00;102790.19;4996495;28;20203;-78
2023/02/14 06:27:26;;;;;;;12.03;8.17;;;;;;;-1.42;100.00;102785.78;4992290;28;20677;-78
2023/02/14 06:29:53;;;;;;;11.03;7.47;;;;;;;-1.42;100.00;102793.63;4999050;28;20207;-79
2023/02/14 06:32:19;;;;;;;12.67;8.07;;;;;;;-1.42;100.00;102795.38;4995277;28;20232;-78
2023/02/14 06:34:45;;;;;;;11.80;8.13;;;;;;;-1.42;100.00;102785.78;4991522;28;20216;-78
2023/02/14 06:37:12;;;;;;;12.33;7.83;;;;;;;-1.42;100.00;102795.38;4990947;28;20208;-78
2023/02/14 06:39:38;;;;;;;11.90;8.23;;;;;;;-1.43;100.00;102802.31;4994255;28;20219;-78
2023/02/14 06:42:05;;;;;;;11.13;7.83;;;;;;;-1.43;100.00;102798.84;4994589;28;20208;-78
2023/02/14 06:44:33;;;;;;;10.13;7.40;;;;;;;-1.45;100.00;102796.22;4992151;28;20296;-78
2023/02/14 06:46:59;;;;;;;11.73;7.23;;;;;;;-1.47;100.00;102803.16;4995730;28;20227;-78
2023/02/14 06:49:26;;;;;;;10.30;7.70;;;;;;;-1.49;100.00;102801.34;4995389;28;20200;-80
2023/02/14 06:51:52;;;;;;;12.07;7.50;;;;;;;-1.50;100.00;102803.06;4997358;28;20227;-79
2023/02/14 06:54:19;;;;;;;31.67;12.40;;;;;;;-1.49;100.00;102803.97;5003157;28;20583;-79
2023/02/14 06:56:45;;;;;;;27.60;13.17;;;;;;;-1.48;100.00;102810.94;4995577;28;20208;-80
2023/02/14 06:59:12;;;;;;;16.87;9.07;;;;;;;-1.49;100.00;102806.56;5003134;28;20684;-81
2023/02/14 07:01:40;;;;;;;13.03;8.23;;;;;;;-1.49;100.00;102811.78;4998896;28;20207;-81
2023/02/14 07:04:06;;;;;;;18.80;10.10;;;;;;;-1.49;100.00;102810.06;4996660;28;20231;-80
2023/02/14 07:06:33;;;;;;;18.17;9.83;;;;;;;-1.49;100.00;102814.41;4995671;28;20211;-81
2023/02/14 07:08:59;;;;;;;16.37;9.50;;;;;;;-1.49;100.00;102809.19;5001101;28;20208;-80
2023/02/14 07:11:27;;;;;;;14.77;9.80;;;;;;;-1.48;100.00;102811.84;4996469;28;20230;-82
2023/02/14 07:13:53;;;;;;;14.13;8.40;;;;;;;-1.47;100.00;102810.09;4990079;28;20688;-80
2023/02/14 07:16:20;;;;;;;13.33;8.60;;;;;;;-1.46;100.00;102802.28;4993373;28;20203;-80
2023/02/14 07:18:48;;;;;;;15.13;8.90;;;;;;;-1.44;100.00;102818.00;4992845;28;20211;-83
2023/02/14 07:21:14;;;;;;;12.97;8.47;;;;;;;-1.42;100.00;102811.94;5001726;28;20492;-80
2023/02/14 07:23:41;;;;;;;12.73;8.60;;;;;;;-1.41;100.00;102818.03;4995986;28;21105;-81
2023/02/14 07:26:07;;;;;;;12.70;8.30;;;;;;;-1.40;100.00;102807.63;4996093;28;20203;-84
2023/02/14 07:28:34;;;;;;;14.03;8.27;;;;;;;-1.39;100.00;102808.50;4996208;28;20214;-81
2023/02/14 07:31:00;;;;;;;12.97;8.17;;;;;;;-1.35;100.00;102810.34;4994026;28;20208;-81
2023/02/14 07:33:27;;;;;;;12.50;8.07;;;;;;;-1.33;100.00;102815.59;4987302;28;20604;-80
2023/02/14 07:35:55;;;;;;;12.00;7.77;;;;;;;-1.31;100.00;102806.06;4994564;28;20590;-83
2023/02/14 07:38:21;;;;;;;12.70;8.13;;;;;;;-1.28;100.00;102798.28;4998608;28;20214;-82
2023/02/14 07:40:48;;;;;;;11.47;7.13;;;;;;;-1.27;100.00;102797.44;4993852;28;20246;-80
2023/02/14 07:43:14;;;;;;;12.43;7.77;;;;;;;-1.27;100.00;102786.97;4999775;28;20227;-83
2023/02/14 07:45:41;;;;;;;11.63;6.93;;;;;;;-1.25;100.00;102791.34;4992657;28;20207;-83
2023/02/14 07:48:07;;;;;;;13.67;8.00;;;;;;;-1.22;100.00;102795.75;4995643;28;20218;-83
2023/02/14 07:50:34;;;;;;;13.87;8.63;;;;;;;-1.19;100.00;102795.81;4995732;28;20199;-82
2023/02/14 07:53:02;;;;;;;12.63;8.73;;;;;;;-1.17;100.00;102795.00;4996220;28;20244;-83
2023/02/14 07:55:28;;;;;;;14.27;9.67;;;;;;;-1.12;100.00;102790.75;4990551;28;20203;-82
2023/02/14 07:57:54;;;;;;;13.93;8.73;;;;;;;-1.08;100.00;102791.69;4993095;28;20212;-83
2023/02/14 08:00:22;;;;;;;14.77;8.63;;;;;;;-1.05;100.00;102789.13;4996332;28;20220;-82
2023/02/14 08:02:48;;;;;;;16.03;9.40;;;;;;;-1.01;100.00;102788.31;4998998;28;20228;-81
2023/02/14 08:05:15;;;;;;;13.80;10.17;;;;;;;-0.96;100.00;102793.66;4995446;28;20211;-81
2023/02/14 08:07:42;;;;;;;14.80;9.53;;;;;;;-0.92;100.00;102790.25;5003256;28;20692;-82
2023/02/14 08:10:10;;;;;;;16.33;10.70;;;;;;;-0.86;100.00;102792.94;5003413;28;20206;-81
2023/02/14 08:18:04;;;;;;;18.37;10.17;;;;;;;-0.62;100.00;102795.13;4996742;28;20238;-81
2023/02/14 08:20:31;;;;;;;21.30;11.27;;;;;;;-0.52;100.00;102800.50;4997848;28;20230;-81
2023/02/14 08:22:57;;;;;;;20.70;12.23;;;;;;;-0.42;100.00;102791.97;5007130;28;20223;-81
2023/02/14 08:25:25;;;;;;;19.63;11.90;;;;;;;-0.30;100.00;102798.25;5002863;28;20775;-83
2023/02/14 08:27:54;;;;;;;21.63;11.27;;;;;;;-0.18;100.00;102787.97;4999044;28;20216;-82
2023/02/14 08:30:20;;;;;;;23.37;14.40;;;;;;;-0.04;100.00;102795.19;5003579;28;20208;-84
2023/02/14 08:32:47;;;;;;;23.27;13.83;;;;;;;0.11;100.00;102789.25;5004470;28;20223;-84
2023/02/14 08:35:13;;;;;;;20.13;12.57;;;;;;;0.24;100.00;102791.19;4992623;28;20681;-83
2023/02/14 08:37:40;;;;;;;26.87;13.10;;;;;;;0.39;100.00;102795.75;4990531;28;20212;-82
2023/02/14 08:40:07;;;;;;;19.33;11.80;;;;;;;0.54;100.00;102795.91;4988692;28;20218;-83
2023/02/14 08:42:35;;;;;;;21.20;12.80;;;;;;;0.71;100.00;102797.91;4995844;28;20621;-81
2023/02/14 08:45:02;;;;;;;23.87;12.60;;;;;;;0.85;100.00;102796.28;4984931;28;20215;-80
2023/02/14 08:47:28;;;;;;;25.67;13.63;;;;;;;1.01;100.00;102796.47;4995223;28;20213;-81
2023/02/14 08:49:55;;;;;;;22.67;13.60;;;;;;;1.18;100.00;102794.00;4990257;28;20208;-81
2023/02/14 08:52:21;;;;;;;25.67;13.03;;;;;;;1.35;100.00;102792.41;4994703;28;20245;-82
2023/02/14 08:54:48;;;;;;;26.63;13.07;;;;;;;1.50;100.00;102786.41;4995905;28;20206;-82
2023/02/14 08:57:14;;;;;;;22.23;14.00;;;;;;;1.64;100.00;102782.13;4995716;28;20210;-82
2023/02/14 08:59:42;;;;;;;22.97;13.90;;;;;;;1.80;100.00;102785.75;4995905;28;20219;-81
2023/02/14 09:02:12;;;;;;;21.70;13.43;;;;;;;1.95;100.00;102783.25;4999466;28;20237;-83
2023/02/14 09:04:38;;;;;;;20.90;12.93;;;;;;;2.10;100.00;102779.81;4998887;28;20224;-83
2023/02/14 09:07:05;;;;;;;18.97;11.80;;;;;;;2.25;100.00;102784.28;4997282;28;20207;-82
2023/02/14 09:09:32;;;;;;;20.13;12.50;;;;;;;2.39;100.00;102779.94;5000353;28;20219;-83
2023/02/14 09:12:02;;;;;;;16.17;11.47;;;;;;;2.53;100.00;102778.25;5000566;28;20227;-84
2023/02/14 09:14:29;;;;;;;21.30;13.53;;;;;;;2.70;100.00;102778.31;4993591;28;20224;-83
2023/02/14 09:17:00;;;;;;;19.20;11.97;;;;;;;2.87;100.00;102775.72;5004334;28;20207;-83
2023/02/14 09:19:26;;;;;;;19.73;12.37;;;;;;;3.05;100.00;102773.13;5001547;28;20660;-82
2023/02/14 09:21:53;;;;;;;16.33;11.17;;;;;;;3.20;100.00;102767.91;5001366;28;20382;-84
2023/02/14 09:24:19;;;;;;;19.03;10.90;;;;;;;3.34;100.00;102762.63;4988497;28;20595;-84
2023/02/14 09:26:45;;;;;;;16.60;11.50;;;;;;;3.47;100.00;102757.34;4989435;28;20548;-82
2023/02/14 09:29:14;;;;;;;18.97;11.93;;;;;;;3.62;100.00;102764.38;4989157;28;20823;-80
2023/02/14 09:31:41;;;;;;;16.03;10.70;;;;;;;3.78;100.00;102758.19;4984385;28;20219;-80
2023/02/14 09:34:09;;;;;;;17.10;11.17;;;;;;;3.94;100.00;102756.41;4990320;28;20231;-82
2023/02/14 09:39:19;;;;;;;17.13;11.90;;;;;;;4.25;100.00;102758.97;4991703;28;20214;-82
2023/02/14 09:42:01;;;;;;;18.40;12.87;;;;;;;4.40;100.00;102753.63;4988925;28;20291;-81
2023/02/14 09:44:35;;;;;;;18.03;10.87;;;;;;;4.54;100.00;102757.94;4988009;28;20639;-81
2023/02/14 09:47:14;;;;;;;14.40;10.27;;;;;;;4.68;100.00;102757.88;4995090;28;20218;-81
2023/02/14 09:49:42;;;;;;;15.33;11.37;;;;;;;4.83;100.00;102759.56;4987958;28;20218;-82
2023/02/14 09:52:13;;;;;;;19.07;12.87;;;;;;;4.96;100.00;102758.59;4988971;28;20224;-81
2023/02/14 09:54:43;;;;;;;17.20;11.30;;;;;;;5.11;100.00;102754.97;4991590;28;20245;-82
2023/02/14 09:57:20;;;;;;;16.47;11.47;;;;;;;5.24;100.00;102757.50;4988653;28;20661;-82
2023/02/14 09:59:52;;;;;;;16.87;11.73;;;;;;;5.37;100.00;102763.59;4989034;28;20664;-82
2023/02/14 10:02:37;;;;;;;15.33;10.60;;;;;;;5.51;100.00;102750.25;4991264;28;20207;-82
2023/02/14 10:05:13;;;;;;;19.53;11.70;;;;;;;5.65;100.00;102752.75;4989631;28;20206;-81
2023/02/14 10:07:51;;;;;;;16.23;11.20;;;;;;;5.76;100.00;102748.22;5000234;28;20206;-81
2023/02/14 10:10:23;;;;;;;12.97;10.40;;;;;;;5.89;100.00;102750.78;4985283;28;20195;-82
2023/02/14 10:12:54;;;;;;;15.70;10.53;;;;;;;6.02;100.00;102748.88;4990274;28;20238;-81
2023/02/14 10:15:25;;;;;;;14.80;10.43;;;;;;;6.15;100.00;102752.25;4989476;28;20826;-81
2023/02/14 10:17:55;;;;;;;16.43;10.73;;;;;;;6.27;100.00;102750.34;4985427;28;20205;-81
2023/02/14 10:20:27;;;;;;;16.90;10.53;;;;;;;6.37;100.00;102750.25;4989851;28;20215;-81
2023/02/14 10:23:02;;;;;;;17.10;11.10;;;;;;;6.49;100.00;102750.06;4985527;28;20219;-81
2023/02/14 10:25:33;;;;;;;14.10;10.33;;;;;;;6.57;100.00;102743.78;4989523;28;20586;-81
2023/02/14 10:28:01;;;;;;;13.20;9.67;;;;;;;6.65;100.00;102743.66;4988905;28;20238;-81
2023/02/14 10:30:37;;;;;;;11.93;9.10;;;;;;;6.74;100.00;102740.91;4987845;28;20846;-81
2023/02/14 10:33:13;;;;;;;9.73;7.57;;;;;;;6.82;100.00;102743.44;4989435;28;20261;-81
2023/02/14 10:35:47;;;;;;;11.40;7.80;;;;;;;6.88;100.00;102738.94;4988384;28;20199;-81
2023/02/14 10:38:30;;;;;;;12.07;9.17;;;;;;;6.96;100.00;102747.66;4988191;28;20660;-81
2023/02/14 10:41:09;;;;;;;11.93;8.07;;;;;;;7.03;100.00;102742.25;4996391;28;20207;-81
2023/02/14 10:43:48;;;;;;;12.93;9.60;;;;;;;7.13;99.10;102739.44;4994051;28;20235;-82
2023/02/14 10:46:22;;;;;;;14.50;8.83;;;;;;;7.24;98.03;102740.13;4996378;28;20711;-81
2023/02/14 10:48:56;;;;;;;10.80;8.67;;;;;;;7.34;97.79;102732.94;4992645;28;20203;-81
2023/02/14 10:51:33;;;;;;;10.80;7.97;;;;;;;7.43;96.59;102732.75;4995454;28;20552;-82
2023/02/14 10:54:15;;;;;;;13.23;8.27;;;;;;;7.49;95.83;102734.44;5004814;28;20235;-83
2023/02/14 10:56:46;;;;;;;11.60;8.47;;;;;;;7.56;95.10;102728.09;4996256;28;20234;-82
2023/02/14 10:59:22;;;;;;;9.67;7.80;;;;;;;7.62;93.90;102718.28;5001943;28;20208;-82
2023/02/14 11:01:50;;;;;;;11.03;8.23;;;;;;;7.68;92.96;102719.94;4997523;28;20211;-82
2023/02/14 11:04:19;;;;;;;10.97;8.17;;;;;;;7.74;92.17;102710.97;4999855;28;20215;-82
2023/02/14 11:06:49;;;;;;;11.90;7.97;;;;;;;7.83;91.45;102714.34;4999049;28;20218;-83
2023/02/14 11:09:17;;;;;;;10.93;8.60;;;;;;;7.93;90.91;102707.06;4998071;28;20207;-84
2023/02/14 11:11:48;;;;;;;10.77;8.40;;;;;;;8.02;90.23;102702.47;4989915;28;20205;-83
2023/02/14 11:14:21;;;;;;;11.60;8.13;;;;;;;8.14;89.80;102696.03;4996755;28;20238;-82
2023/02/14 11:16:50;;;;;;;12.47;8.67;;;;;;;8.22;89.70;102693.22;4991955;28;20212;-81
2023/02/14 11:19:22;;;;;;;12.03;8.63;;;;;;;8.29;89.19;102690.41;4993816;28;20204;-83
2023/02/14 11:21:51;;;;;;;9.80;8.27;;;;;;;8.38;88.74;102691.16;4988603;28;20207;-82
2023/02/14 11:24:20;;;;;;;10.80;7.97;;;;;;;8.45;88.50;102674.16;4989341;28;20228;-82
2023/02/14 11:26:48;;;;;;;11.80;8.07;;;;;;;8.51;87.62;102679.34;4985684;28;20204;-81
2023/02/14 11:29:20;;;;;;;11.43;7.87;;;;;;;8.58;87.15;102676.53;4988595;28;20205;-82
2023/02/14 11:31:47;;;;;;;11.53;8.63;;;;;;;8.65;86.65;102679.91;4986693;28;20818;-82
2023/02/14 11:34:28;;;;;;;10.77;7.67;;;;;;;8.70;86.32;102673.59;4992529;28;20254;-82
2023/02/14 11:36:56;;;;;;;11.30;7.97;;;;;;;8.78;85.57;102673.38;4991395;28;20199;-81
2023/02/14 11:39:29;;;;;;;10.70;8.53;;;;;;;8.84;84.91;102661.75;4991900;28;20211;-82
2023/02/14 11:41:59;;;;;;;12.90;8.80;;;;;;;8.89;85.23;102663.38;4995318;28;20204;-81